createdAt,value
2018-06-29T00:00:10.918Z,11.83
2018-06-29T00:02:39.995Z,11.50
2018-06-29T00:05:09.760Z,9.53
2018-06-29T00:07:38.759Z,10.20
2018-06-29T00:10:08.150Z,10.50
2018-06-29T00:12:37.155Z,10.30
2018-06-29T00:15:06.242Z,9.30
2018-06-29T00:17:35.199Z,10.93
2018-06-29T00:20:04.622Z,10.90
2018-06-29T00:22:33.884Z,11.87
2018-06-29T00:25:02.920Z,11.23
2018-06-29T00:27:32.009Z,10.43
2018-06-29T00:30:00.998Z,10.83
2018-06-29T00:32:30.067Z,11.10
2018-06-29T00:34:59.186Z,9.73
2018-06-29T00:37:28.247Z,11.90
2018-06-29T00:39:57.333Z,10.47
2018-06-29T00:42:26.449Z,12.60
2018-06-29T00:44:55.509Z,12.67
2018-06-29T00:47:24.473Z,15.00
2018-06-29T00:49:53.442Z,15.07
2018-06-29T00:52:23.237Z,14.80
2018-06-29T00:54:52.147Z,15.17
2018-06-29T00:57:22.629Z,14.30
2018-06-29T00:59:51.599Z,15.57
2018-06-29T01:02:21.465Z,14.20
2018-06-29T01:04:50.558Z,14.03
2018-06-29T01:07:19.575Z,16.47
2018-06-29T01:09:48.531Z,14.07
2018-06-29T01:12:17.518Z,14.43
2018-06-29T01:14:46.501Z,14.47
2018-06-29T01:17:15.512Z,16.37
2018-06-29T01:19:44.710Z,15.73
2018-06-29T01:22:13.867Z,14.47
2018-06-29T01:24:43.003Z,16.70
2018-06-29T01:27:12.699Z,15.53
2018-06-29T01:29:41.733Z,18.30
2018-06-29T01:32:10.700Z,19.20
2018-06-29T01:34:39.787Z,18.70
2018-06-29T01:37:08.754Z,17.73
2018-06-29T01:39:37.796Z,20.40
2018-06-29T01:42:06.917Z,18.83
2018-06-29T01:44:35.947Z,16.77
2018-06-29T01:47:05.067Z,15.80
2018-06-29T01:49:34.075Z,16.07
2018-06-29T01:52:03.089Z,16.93
2018-06-29T01:54:32.084Z,16.60
2018-06-29T01:57:01.212Z,14.23
2018-06-29T01:59:30.208Z,14.17
2018-06-29T02:01:59.204Z,15.50
2018-06-29T02:04:28.300Z,16.40
2018-06-29T02:06:57.372Z,16.93
2018-06-29T02:09:26.337Z,14.77
2018-06-29T02:11:55.393Z,14.97
2018-06-29T02:14:25.021Z,14.33
2018-06-29T02:16:54.053Z,18.00
2018-06-29T02:19:23.222Z,14.77
2018-06-29T02:21:52.237Z,16.03
2018-06-29T02:24:21.952Z,16.67
2018-06-29T02:26:51.002Z,15.73
2018-06-29T02:29:19.960Z,17.00
2018-06-29T02:31:49.009Z,16.40
2018-06-29T02:34:18.038Z,19.40
2018-06-29T02:36:47.038Z,18.97
2018-06-29T02:39:16.033Z,17.27
2018-06-29T02:41:45.125Z,15.50
2018-06-29T02:44:14.098Z,20.07
2018-06-29T02:46:43.069Z,15.63
2018-06-29T02:49:12.648Z,17.07
2018-06-29T02:51:41.621Z,18.97
2018-06-29T02:54:10.665Z,19.63
2018-06-29T02:56:40.871Z,17.90
2018-06-29T02:59:09.977Z,19.70
2018-06-29T03:01:39.594Z,20.63
2018-06-29T03:04:08.690Z,17.00
2018-06-29T03:06:37.705Z,16.60
2018-06-29T03:09:09.044Z,18.73
2018-06-29T03:11:38.181Z,20.43
2018-06-29T03:14:07.874Z,19.10
2018-06-29T03:16:38.559Z,19.40
2018-06-29T03:19:07.639Z,20.47
2018-06-29T03:21:36.754Z,19.60
2018-06-29T03:24:05.914Z,21.40
2018-06-29T03:26:35.699Z,14.97
2018-06-29T03:29:04.754Z,15.13
2018-06-29T03:31:33.814Z,16.47
2018-06-29T03:34:02.954Z,17.70
2018-06-29T03:36:31.926Z,14.67
2018-06-29T03:39:01.073Z,13.10
2018-06-29T03:41:30.099Z,9.53
2018-06-29T03:43:59.079Z,8.27
2018-06-29T03:46:28.151Z,8.80
2018-06-29T03:48:57.141Z,8.17
2018-06-29T03:51:26.049Z,8.50
2018-06-29T03:53:55.185Z,7.47
2018-06-29T03:56:24.182Z,11.00
2018-06-29T03:58:53.565Z,11.87
2018-06-29T04:01:22.567Z,17.53
2018-06-29T04:03:51.628Z,18.97
2018-06-29T04:06:21.599Z,21.43
2018-06-29T04:08:50.617Z,23.10
2018-06-29T04:11:19.560Z,23.07
2018-06-29T04:13:48.497Z,29.37
2018-06-29T04:16:17.505Z,31.33
2018-06-29T04:18:46.580Z,31.73
2018-06-29T04:21:15.512Z,29.53
2018-06-29T04:23:44.684Z,24.73
2018-06-29T04:26:13.807Z,26.53
2018-06-29T04:28:43.735Z,32.30
2018-06-29T04:31:12.740Z,26.93
2018-06-29T04:33:41.663Z,24.40
2018-06-29T04:36:10.717Z,23.23
2018-06-29T04:38:39.848Z,26.00
2018-06-29T04:41:09.055Z,26.20
2018-06-29T04:43:38.056Z,23.30
2018-06-29T04:46:07.148Z,26.03
2018-06-29T04:48:36.080Z,24.43
2018-06-29T04:51:05.061Z,23.67
2018-06-29T04:53:34.151Z,23.63
2018-06-29T04:56:03.198Z,22.27
2018-06-29T04:58:32.161Z,22.07
2018-06-29T05:01:01.217Z,22.37
2018-06-29T05:03:30.257Z,20.97
2018-06-29T05:05:59.210Z,21.07
2018-06-29T05:08:28.279Z,21.33
2018-06-29T05:10:57.361Z,22.57
2018-06-29T05:13:26.315Z,21.03
2018-06-29T05:15:55.490Z,21.03
2018-06-29T05:18:24.520Z,21.17
2018-06-29T05:20:53.464Z,23.37
2018-06-29T05:23:22.476Z,23.70
2018-06-29T05:25:51.441Z,21.47
2018-06-29T05:28:20.413Z,20.80
2018-06-29T05:30:49.538Z,22.00
2018-06-29T05:33:21.341Z,20.93
2018-06-29T05:35:50.486Z,20.47
2018-06-29T05:38:20.214Z,18.63
2018-06-29T05:40:49.270Z,21.00
2018-06-29T05:43:18.284Z,17.43
2018-06-29T05:45:47.327Z,18.07
2018-06-29T05:48:16.311Z,21.17
2018-06-29T05:50:45.555Z,20.60
2018-06-29T05:53:14.569Z,21.00
2018-06-29T05:55:43.567Z,18.53
2018-06-29T05:58:12.649Z,18.70
2018-06-29T06:00:41.676Z,18.87
2018-06-29T06:03:10.607Z,16.40
2018-06-29T06:05:39.766Z,15.60
2018-06-29T06:08:08.834Z,14.37
2018-06-29T06:10:37.876Z,15.53
2018-06-29T06:13:06.935Z,12.70
2018-06-29T06:15:36.390Z,14.60
2018-06-29T06:18:05.347Z,16.00
2018-06-29T06:20:34.996Z,15.30
2018-06-29T06:23:15.783Z,13.57
2018-06-29T06:25:44.808Z,13.40
2018-06-29T06:28:14.545Z,16.63
2018-06-29T06:30:43.543Z,13.70
2018-06-29T06:33:12.838Z,10.23
2018-06-29T06:35:42.027Z,8.80
2018-06-29T06:38:11.085Z,9.60
2018-06-29T06:40:40.153Z,8.00
2018-06-29T06:43:09.282Z,8.17
2018-06-29T06:45:38.222Z,7.43
2018-06-29T06:48:07.339Z,7.60
2018-06-29T06:50:36.813Z,5.90
2018-06-29T06:53:05.787Z,6.80
2018-06-29T06:55:37.665Z,6.60
2018-06-29T06:58:06.734Z,6.23
2018-06-29T07:00:35.721Z,8.63
2018-06-29T07:03:04.711Z,6.40
2018-06-29T07:05:33.656Z,6.23
2018-06-29T07:08:02.684Z,6.90
2018-06-29T07:10:31.690Z,6.97
2018-06-29T07:13:00.645Z,11.20
2018-06-29T07:15:29.587Z,6.90
2018-06-29T07:17:59.277Z,6.30
2018-06-29T07:20:28.253Z,7.50
2018-06-29T07:22:57.240Z,7.57
2018-06-29T07:25:26.364Z,9.07
2018-06-29T07:27:57.645Z,9.80
2018-06-29T07:30:26.684Z,9.33
2018-06-29T07:32:55.645Z,10.00
2018-06-29T07:35:24.744Z,10.30
2018-06-29T07:37:54.208Z,11.30
2018-06-29T07:40:23.223Z,11.43
2018-06-29T07:42:52.168Z,10.50
2018-06-29T07:45:21.174Z,10.73
2018-06-29T07:47:50.273Z,10.67
2018-06-29T07:50:19.240Z,12.20
2018-06-29T07:52:49.003Z,10.80
2018-06-29T07:55:18.050Z,10.17
2018-06-29T07:57:47.048Z,10.57
2018-06-29T08:00:16.589Z,11.33
2018-06-29T08:02:45.731Z,11.13
2018-06-29T08:05:14.762Z,11.03
2018-06-29T08:07:43.839Z,10.50
2018-06-29T08:10:12.887Z,11.43
2018-06-29T08:12:42.002Z,9.90
2018-06-29T08:15:11.243Z,9.80
2018-06-29T08:17:40.401Z,8.33
2018-06-29T08:20:10.080Z,6.20
2018-06-29T08:22:40.151Z,6.50
2018-06-29T08:25:17.268Z,6.70
2018-06-29T08:27:46.471Z,8.60
2018-06-29T08:30:15.928Z,10.17
2018-06-29T08:32:45.064Z,10.47
2018-06-29T08:35:14.294Z,9.80
2018-06-29T08:37:43.462Z,9.13
2018-06-29T08:40:12.592Z,9.70
2018-06-29T08:42:41.755Z,7.00
2018-06-29T08:45:10.988Z,6.00
2018-06-29T08:47:40.163Z,5.50
2018-06-29T08:50:09.359Z,4.27
2018-06-29T08:52:38.453Z,4.80
2018-06-29T08:55:08.465Z,5.10
2018-06-29T08:57:37.601Z,9.10
2018-06-29T09:00:10.168Z,5.20
2018-06-29T09:02:39.430Z,5.67
2018-06-29T09:05:08.876Z,5.43
2018-06-29T09:07:37.988Z,5.27
2018-06-29T09:10:07.443Z,5.73
2018-06-29T09:12:36.505Z,5.30
2018-06-29T09:15:06.187Z,7.00
2018-06-29T09:17:35.484Z,4.67
2018-06-29T09:20:04.783Z,4.07
2018-06-29T09:22:33.913Z,4.30
2018-06-29T09:25:03.149Z,4.43
2018-06-29T09:27:32.352Z,5.23
2018-06-29T09:30:02.589Z,4.90
2018-06-29T09:32:32.451Z,5.30
2018-06-29T09:35:01.582Z,4.63
2018-06-29T09:37:30.724Z,4.70
2018-06-29T09:40:00.533Z,6.13
2018-06-29T09:42:29.578Z,4.43
2018-06-29T09:44:58.743Z,4.50
2018-06-29T09:47:27.916Z,3.83
2018-06-29T09:49:57.018Z,3.87
2018-06-29T09:52:26.120Z,4.10
2018-06-29T09:54:55.305Z,3.60
2018-06-29T09:57:24.483Z,4.43
2018-06-29T09:59:53.608Z,4.50
2018-06-29T10:02:23.265Z,4.23
2018-06-29T10:04:52.380Z,3.50
2018-06-29T10:07:21.483Z,4.17
2018-06-29T10:09:50.698Z,3.30
2018-06-29T10:12:19.850Z,3.53
2018-06-29T10:14:48.975Z,4.27
2018-06-29T10:17:18.186Z,3.50
2018-06-29T10:19:47.343Z,3.10
2018-06-29T10:22:16.593Z,3.30
2018-06-29T10:24:45.972Z,5.97
2018-06-29T10:27:15.134Z,4.07
2018-06-29T10:29:45.206Z,4.00
2018-06-29T10:32:14.331Z,4.50
2018-06-29T10:34:43.942Z,4.87
2018-06-29T10:37:14.003Z,5.53
2018-06-29T10:39:43.692Z,5.93
2018-06-29T10:42:12.913Z,4.27
2018-06-29T10:44:42.690Z,4.30
2018-06-29T10:47:11.773Z,4.43
2018-06-29T10:49:40.898Z,5.43
2018-06-29T10:52:10.100Z,4.10
2018-06-29T10:54:39.208Z,3.80
2018-06-29T10:57:08.331Z,4.10
2018-06-29T10:59:37.488Z,4.07
2018-06-29T11:02:06.653Z,4.30
2018-06-29T11:04:35.722Z,3.17
2018-06-29T11:07:05.036Z,3.73
2018-06-29T11:09:34.147Z,3.50
2018-06-29T11:12:03.338Z,4.10
2018-06-29T11:14:32.658Z,4.47
2018-06-29T11:17:01.796Z,3.37
2018-06-29T11:19:30.922Z,2.95
2018-06-29T11:22:00.096Z,2.70
2018-06-29T11:24:29.771Z,3.12
2018-06-29T11:26:59.526Z,2.92
2018-06-29T11:29:28.669Z,3.15
2018-06-29T11:31:57.749Z,3.30
2018-06-29T11:34:26.850Z,2.85
2018-06-29T11:36:56.712Z,3.20
2018-06-29T11:39:26.580Z,3.30
2018-06-29T11:41:55.518Z,4.22
2018-06-29T11:44:24.723Z,4.03
2018-06-29T11:46:54.577Z,2.58
2018-06-29T11:49:24.375Z,2.20
2018-06-29T11:51:53.527Z,1.87
2018-06-29T11:54:22.624Z,2.55
2018-06-29T11:56:52.407Z,4.65
2018-06-29T11:59:21.488Z,2.55
2018-06-29T12:01:50.586Z,4.42
2018-06-29T12:04:19.697Z,2.47
2018-06-29T12:06:49.260Z,2.70
2018-06-29T12:09:18.422Z,2.70
2018-06-29T12:11:47.684Z,2.62
2018-06-29T12:14:16.935Z,3.17
2018-06-29T12:16:46.016Z,2.72
2018-06-29T12:19:15.164Z,2.75
2018-06-29T12:21:44.965Z,2.75
2018-06-29T12:24:14.754Z,2.00
2018-06-29T12:26:44.546Z,2.40
2018-06-29T12:29:14.256Z,3.98
2018-06-29T12:31:43.392Z,3.22
2018-06-29T12:34:12.539Z,2.87
2018-06-29T12:36:41.637Z,1.72
2018-06-29T12:39:10.882Z,1.70
2018-06-29T12:41:41.420Z,1.82
2018-06-29T12:44:11.408Z,3.00
2018-06-29T12:46:40.826Z,2.17
2018-06-29T12:49:09.805Z,1.60
2018-06-29T12:51:39.008Z,1.65
2018-06-29T12:54:08.025Z,2.25
2018-06-29T12:56:36.955Z,1.80
2018-06-29T12:59:05.907Z,1.77
2018-06-29T13:01:34.936Z,1.72
2018-06-29T13:04:04.009Z,1.62
2018-06-29T13:06:32.950Z,1.52
2018-06-29T13:09:01.896Z,1.52
2018-06-29T13:11:31.426Z,1.60
2018-06-29T13:14:00.347Z,3.00
2018-06-29T13:16:29.452Z,2.67
2018-06-29T13:18:58.374Z,3.00
2018-06-29T13:21:29.707Z,1.82
2018-06-29T13:23:58.634Z,2.35
2018-06-29T13:26:27.549Z,2.30
2018-06-29T13:28:56.753Z,2.40
2018-06-29T13:31:25.713Z,2.60
2018-06-29T13:33:54.969Z,2.10
2018-06-29T13:36:23.979Z,3.72
2018-06-29T13:38:52.953Z,16.00
2018-06-29T13:41:21.924Z,2.62
2018-06-29T13:43:50.876Z,2.70
2018-06-29T13:46:19.803Z,3.20
2018-06-29T13:48:50.071Z,4.92
2018-06-29T13:51:19.116Z,2.80
2018-06-29T13:53:48.162Z,3.20
2018-06-29T13:56:17.113Z,2.98
2018-06-29T13:58:46.261Z,3.20
2018-06-29T14:01:15.243Z,3.80
2018-06-29T14:03:44.161Z,4.97
2018-06-29T14:06:13.239Z,3.80
2018-06-29T14:08:42.167Z,4.30
2018-06-29T14:11:11.277Z,4.20
2018-06-29T14:13:40.324Z,4.60
2018-06-29T14:16:09.386Z,4.83
2018-06-29T14:18:38.330Z,4.60
2018-06-29T14:21:07.596Z,5.15
2018-06-29T14:23:37.508Z,6.33
2018-06-29T14:26:06.742Z,5.17
2018-06-29T14:28:35.756Z,5.15
2018-06-29T14:31:04.725Z,4.58
2018-06-29T14:33:33.901Z,4.72
2018-06-29T14:36:03.009Z,4.33
2018-06-29T14:38:32.044Z,4.78
2018-06-29T14:41:01.068Z,5.15
2018-06-29T14:43:30.069Z,9.43
2018-06-29T14:46:00.116Z,4.85
2018-06-29T14:48:29.215Z,10.10
2018-06-29T14:50:58.362Z,3.60
2018-06-29T14:53:27.279Z,3.27
2018-06-29T14:55:56.347Z,3.27
2018-06-29T14:58:25.316Z,2.85
2018-06-29T15:00:54.384Z,3.23
2018-06-29T15:03:23.442Z,3.00
2018-06-29T15:05:52.389Z,2.92
2018-06-29T15:08:22.085Z,3.03
2018-06-29T15:10:51.233Z,3.30
2018-06-29T15:13:20.192Z,3.50
2018-06-29T15:15:49.213Z,3.83
2018-06-29T15:18:18.364Z,8.58
2018-06-29T15:20:47.311Z,9.25
2018-06-29T15:23:16.426Z,4.40
2018-06-29T15:25:45.458Z,4.62
2018-06-29T15:28:15.294Z,3.42
2018-06-29T15:30:44.281Z,3.50
2018-06-29T15:33:13.357Z,3.62
2018-06-29T15:35:42.273Z,4.85
2018-06-29T15:38:11.784Z,3.92
2018-06-29T15:40:40.808Z,5.42
2018-06-29T15:43:10.998Z,5.28
2018-06-29T15:45:39.947Z,4.12
2018-06-29T15:48:09.120Z,4.20
2018-06-29T15:50:38.179Z,5.05
2018-06-29T15:53:07.724Z,5.77
2018-06-29T15:55:37.415Z,4.20
2018-06-29T15:58:06.440Z,4.50
2018-06-29T16:00:35.492Z,4.07
2018-06-29T16:03:04.726Z,5.17
2018-06-29T16:05:33.737Z,5.43
2018-06-29T16:08:03.862Z,4.60
2018-06-29T16:10:32.956Z,4.97
2018-06-29T16:13:01.917Z,5.10
2018-06-29T16:15:30.897Z,4.83
2018-06-29T16:17:59.948Z,5.30
2018-06-29T16:20:28.901Z,5.83
2018-06-29T16:22:57.985Z,6.03
2018-06-29T16:25:26.999Z,5.67
2018-06-29T16:27:55.969Z,5.73
2018-06-29T16:30:25.073Z,5.87
2018-06-29T16:32:54.132Z,5.80
2018-06-29T16:35:23.144Z,5.57
2018-06-29T16:37:52.205Z,5.70
2018-06-29T16:40:21.152Z,6.10
2018-06-29T16:42:50.112Z,6.17
2018-06-29T16:45:19.246Z,6.03
2018-06-29T16:47:48.178Z,5.63
2018-06-29T16:50:17.092Z,5.63
2018-06-29T16:52:46.147Z,5.33
2018-06-29T16:55:15.240Z,5.27
2018-06-29T16:57:44.380Z,5.63
2018-06-29T17:00:13.529Z,5.53
2018-06-29T17:02:42.588Z,6.47
2018-06-29T17:05:11.591Z,4.57
2018-06-29T17:07:42.694Z,5.07
2018-06-29T17:10:11.693Z,4.70
2018-06-29T17:12:40.877Z,7.70
2018-06-29T17:15:10.146Z,4.60
2018-06-29T17:17:39.344Z,4.40
2018-06-29T17:20:08.559Z,4.30
2018-06-29T17:22:37.640Z,3.70
2018-06-29T17:25:06.951Z,4.60
2018-06-29T17:27:36.037Z,4.43
2018-06-29T17:30:06.216Z,6.77
2018-06-29T17:32:35.566Z,4.57
2018-06-29T17:35:04.726Z,4.47
2018-06-29T17:37:33.829Z,5.33
2018-06-29T17:40:03.164Z,4.57
2018-06-29T17:42:32.175Z,4.03
2018-06-29T17:45:02.939Z,4.13
2018-06-29T17:47:31.988Z,4.23
2018-06-29T17:50:01.075Z,4.70
2018-06-29T17:52:30.019Z,5.93
2018-06-29T17:54:59.042Z,5.93
2018-06-29T17:57:28.657Z,6.57
2018-06-29T17:59:57.593Z,4.50
2018-06-29T18:02:26.592Z,3.70
2018-06-29T18:04:56.553Z,4.20
2018-06-29T18:07:25.501Z,4.67
2018-06-29T18:09:54.651Z,4.27
2018-06-29T18:12:23.667Z,3.70
2018-06-29T18:14:52.622Z,4.40
2018-06-29T18:17:23.447Z,4.23
2018-06-29T18:19:52.369Z,3.90
2018-06-29T18:22:21.546Z,3.47
2018-06-29T18:24:50.584Z,3.63
2018-06-29T18:27:19.532Z,4.10
2018-06-29T18:29:48.563Z,5.60
2018-06-29T18:32:17.553Z,5.73
2018-06-29T18:34:46.499Z,4.70
2018-06-29T18:37:15.701Z,4.67
2018-06-29T18:39:44.714Z,6.33
2018-06-29T18:42:14.635Z,6.10
2018-06-29T18:44:43.553Z,13.57
2018-06-29T18:47:12.712Z,17.40
2018-06-29T18:49:41.688Z,11.67
2018-06-29T18:52:10.656Z,8.07
2018-06-29T18:54:39.677Z,12.60
2018-06-29T18:57:08.630Z,10.57
2018-06-29T18:59:37.630Z,12.27
2018-06-29T19:02:06.668Z,19.10
2018-06-29T19:04:35.602Z,17.20
2018-06-29T19:07:04.621Z,9.03
2018-06-29T19:09:34.623Z,6.73
2018-06-29T19:12:03.962Z,10.87
2018-06-29T19:14:32.942Z,7.87
2018-06-29T19:17:01.885Z,7.37
2018-06-29T19:19:31.905Z,14.77
2018-06-29T19:22:01.001Z,13.33
2018-06-29T19:24:30.553Z,11.97
2018-06-29T19:26:59.637Z,7.57
2018-06-29T19:29:28.714Z,6.27
2018-06-29T19:31:57.786Z,6.60
2018-06-29T19:34:26.819Z,7.37
2018-06-29T19:39:41.741Z,7.30
2018-06-29T19:42:10.813Z,6.00
2018-06-29T19:44:39.796Z,6.87
2018-06-29T19:47:08.729Z,6.00
2018-06-29T19:49:37.716Z,6.60
2018-06-29T19:52:06.709Z,8.43
2018-06-29T19:54:35.892Z,7.90
2018-06-29T19:57:05.112Z,14.07
2018-06-29T19:59:34.057Z,10.53
2018-06-29T20:02:03.312Z,10.90
2018-06-29T20:04:32.776Z,6.47
2018-06-29T20:07:01.855Z,8.13
2018-06-29T20:09:30.813Z,12.20
2018-06-29T20:12:00.144Z,12.13
2018-06-29T20:14:29.096Z,7.57
2018-06-29T20:16:58.047Z,8.17
2018-06-29T20:19:27.016Z,6.07
2018-06-29T20:21:55.921Z,8.50
2018-06-29T20:24:24.823Z,6.50
2018-06-29T20:26:53.890Z,7.20
2018-06-29T20:29:22.878Z,6.93
2018-06-29T20:31:51.832Z,7.73
2018-06-29T20:34:20.839Z,7.03
2018-06-29T20:36:49.773Z,9.47
2018-06-29T20:39:18.751Z,6.63
2018-06-29T20:41:47.883Z,7.37
2018-06-29T20:44:16.820Z,5.97
2018-06-29T20:46:45.824Z,6.10
2018-06-29T20:49:15.130Z,9.47
2018-06-29T20:51:44.876Z,9.47
2018-06-29T20:54:13.821Z,7.40
2018-06-29T20:56:43.776Z,13.37
2018-06-29T20:59:12.684Z,43.47
2018-06-29T21:01:41.706Z,14.83
2018-06-29T21:04:10.793Z,6.60
2018-06-29T21:06:39.811Z,9.17
2018-06-29T21:09:11.411Z,9.90
2018-06-29T21:11:40.560Z,8.27
2018-06-29T21:14:09.532Z,7.53
2018-06-29T21:16:38.638Z,7.57
2018-06-29T21:19:07.943Z,7.20
2018-06-29T21:21:36.913Z,8.30
2018-06-29T21:24:05.958Z,8.70
2018-06-29T21:26:34.901Z,6.53
2018-06-29T21:29:03.884Z,10.63
2018-06-29T21:31:33.867Z,7.33
2018-06-29T21:34:02.785Z,13.07
2018-06-29T21:36:31.695Z,8.40
2018-06-29T21:39:00.805Z,10.27
2018-06-29T21:41:29.695Z,10.60
2018-06-29T21:43:59.312Z,6.93
2018-06-29T21:46:28.337Z,7.57
2018-06-29T21:48:57.959Z,7.87
2018-06-29T21:51:27.142Z,8.03
2018-06-29T21:53:56.249Z,6.93
2018-06-29T21:56:25.257Z,6.60
2018-06-29T21:58:54.392Z,6.63
2018-06-29T22:01:23.609Z,6.13
2018-06-29T22:03:52.681Z,7.37
2018-06-29T22:06:22.556Z,8.30
2018-06-29T22:08:51.737Z,7.40
2018-06-29T22:11:20.676Z,7.30
2018-06-29T22:13:49.608Z,9.13
2018-06-29T22:16:18.612Z,5.73
2018-06-29T22:18:47.596Z,7.23
2018-06-29T22:21:16.607Z,6.93
2018-06-29T22:23:45.682Z,7.40
2018-06-29T22:26:14.591Z,8.90
2018-06-29T22:28:43.623Z,6.60
2018-06-29T22:31:12.594Z,7.13
2018-06-29T22:33:42.225Z,7.10
2018-06-29T22:36:11.336Z,6.37
2018-06-29T22:38:40.482Z,7.53
2018-06-29T22:41:09.440Z,6.73
2018-06-29T22:43:38.927Z,6.10
2018-06-29T22:46:07.968Z,8.27
2018-06-29T22:48:36.900Z,8.43
2018-06-29T22:51:05.851Z,6.53
2018-06-29T22:53:34.892Z,6.40
2018-06-29T22:56:03.983Z,7.43
2018-06-29T22:58:33.018Z,6.30
2018-06-29T23:01:02.015Z,6.00
2018-06-29T23:03:36.235Z,8.00
2018-06-29T23:06:05.293Z,6.27
2018-06-29T23:08:34.425Z,8.67
2018-06-29T23:11:03.338Z,5.83
2018-06-29T23:13:32.308Z,6.80
2018-06-29T23:16:01.217Z,6.40
2018-06-29T23:18:30.136Z,7.37
2018-06-29T23:20:59.217Z,6.50
2018-06-29T23:23:28.149Z,6.90
2018-06-29T23:25:57.721Z,5.90
2018-06-29T23:28:26.890Z,5.07
2018-06-29T23:30:55.857Z,6.60
2018-06-29T23:33:24.784Z,5.53
2018-06-29T23:35:54.404Z,5.60
2018-06-29T23:38:23.335Z,5.93
2018-06-29T23:40:52.259Z,7.63
2018-06-29T23:43:21.392Z,5.87
2018-06-29T23:45:50.306Z,5.57
2018-06-29T23:48:19.221Z,5.60
2018-06-29T23:50:48.239Z,5.43
2018-06-29T23:53:17.400Z,6.50
2018-06-29T23:55:46.303Z,5.47
2018-06-29T23:58:16.153Z,5.80
